createdAt,value
2023-04-17T00:01:16.051Z,16.75
2023-04-17T00:03:45.528Z,14.60
2023-04-17T00:06:16.589Z,15.23
2023-04-17T00:08:46.466Z,15.77
2023-04-17T00:11:17.326Z,14.93
2023-04-17T00:13:48.202Z,15.50
2023-04-17T00:16:17.700Z,15.75
2023-04-17T00:18:47.158Z,15.38
2023-04-17T00:21:16.557Z,15.43
2023-04-17T00:23:46.097Z,13.88
2023-04-17T00:26:15.536Z,15.10
2023-04-17T00:28:47.477Z,15.98
2023-04-17T00:31:16.870Z,15.95
2023-04-17T00:33:46.570Z,16.33
2023-04-17T00:36:16.360Z,15.90
2023-04-17T00:38:45.956Z,14.77
2023-04-17T00:41:15.521Z,14.82
2023-04-17T00:43:45.036Z,15.30
2023-04-17T00:46:14.780Z,15.27
2023-04-17T00:48:44.338Z,15.32
2023-04-17T00:51:14.154Z,15.73
2023-04-17T00:53:43.620Z,14.85
2023-04-17T00:56:13.276Z,16.77
2023-04-17T00:58:43.219Z,16.80
2023-04-17T01:01:12.703Z,16.40
2023-04-17T01:03:42.303Z,14.45
2023-04-17T01:06:11.852Z,17.13
2023-04-17T01:08:45.474Z,16.30
2023-04-17T01:11:15.811Z,15.13
2023-04-17T01:13:49.198Z,14.88
2023-04-17T01:16:19.793Z,16.35
2023-04-17T01:18:49.948Z,15.05
2023-04-17T01:21:19.633Z,16.23
2023-04-17T01:23:52.168Z,16.75
2023-04-17T01:26:23.838Z,16.42
2023-04-17T01:28:54.512Z,16.80
2023-04-17T01:31:24.701Z,15.95
2023-04-17T01:33:55.121Z,15.55
2023-04-17T01:36:24.665Z,17.38
2023-04-17T01:38:54.510Z,18.02
2023-04-17T01:41:23.856Z,14.43
2023-04-17T01:43:53.415Z,15.88
2023-04-17T01:46:22.867Z,14.40
2023-04-17T01:48:52.448Z,15.88
2023-04-17T01:51:21.900Z,16.10
2023-04-17T01:53:51.758Z,16.48
2023-04-17T01:56:21.317Z,16.13
2023-04-17T01:58:51.866Z,16.20
2023-04-17T02:01:22.413Z,15.95
2023-04-17T02:03:51.913Z,16.30
2023-04-17T02:06:21.459Z,17.13
2023-04-17T02:08:50.919Z,17.63
2023-04-17T02:11:20.286Z,18.75
2023-04-17T02:13:53.737Z,18.63
2023-04-17T02:16:24.465Z,18.80
2023-04-17T02:18:54.343Z,19.77
2023-04-17T02:21:24.068Z,19.42
2023-04-17T02:23:53.499Z,17.33
2023-04-17T02:26:23.650Z,19.23
2023-04-17T02:28:53.047Z,18.88
2023-04-17T02:31:22.469Z,20.27
2023-04-17T02:33:51.886Z,19.23
2023-04-17T02:36:21.386Z,20.30
2023-04-17T02:38:50.903Z,19.10
2023-04-17T02:41:20.672Z,18.48
2023-04-17T02:43:50.151Z,18.90
2023-04-17T02:46:21.123Z,19.95
2023-04-17T02:48:50.626Z,19.17
2023-04-17T02:51:20.065Z,17.52
2023-04-17T02:53:49.517Z,18.75
2023-04-17T02:56:19.176Z,19.00
2023-04-17T02:58:48.746Z,17.45
2023-04-17T03:01:18.277Z,19.85
2023-04-17T03:03:49.133Z,18.95
2023-04-17T03:06:19.401Z,18.63
2023-04-17T03:08:48.852Z,19.35
2023-04-17T03:11:18.932Z,19.48
2023-04-17T03:13:48.406Z,18.63
2023-04-17T03:16:18.004Z,19.42
2023-04-17T03:18:49.043Z,20.20
2023-04-17T03:21:18.559Z,17.42
2023-04-17T03:23:48.043Z,19.13
2023-04-17T03:26:17.476Z,18.38
2023-04-17T03:28:46.966Z,18.40
2023-04-17T03:31:16.593Z,19.77
2023-04-17T03:33:46.215Z,20.23
2023-04-17T03:36:15.755Z,18.05
2023-04-17T03:38:46.125Z,18.92
2023-04-17T03:41:18.360Z,17.60
2023-04-17T03:43:48.413Z,18.85
2023-04-17T03:46:18.014Z,18.45
2023-04-17T03:48:47.588Z,18.98
2023-04-17T03:51:19.098Z,19.88
2023-04-17T03:53:50.374Z,19.05
2023-04-17T03:56:20.161Z,19.58
2023-04-17T03:58:49.705Z,21.10
2023-04-17T04:01:22.580Z,19.80
2023-04-17T04:04:18.257Z,19.33
2023-04-17T04:06:49.574Z,20.55
2023-04-17T04:09:22.299Z,21.90
2023-04-17T04:11:51.804Z,18.70
2023-04-17T04:14:21.433Z,20.42
2023-04-17T04:16:51.638Z,18.75
2023-04-17T04:19:21.005Z,19.67
2023-04-17T04:21:50.681Z,18.23
2023-04-17T04:24:20.521Z,20.30
2023-04-17T04:26:51.622Z,18.27
2023-04-17T04:29:25.756Z,19.80
2023-04-17T04:32:16.030Z,18.25
2023-04-17T04:34:48.701Z,19.27
2023-04-17T04:37:22.118Z,20.85
2023-04-17T04:39:54.247Z,18.50
2023-04-17T04:42:26.081Z,19.33
2023-04-17T04:45:09.102Z,19.55
2023-04-17T04:47:38.900Z,19.60
2023-04-17T04:50:08.583Z,18.45
2023-04-17T04:52:39.196Z,18.30
2023-04-17T04:55:17.634Z,19.05
2023-04-17T04:57:53.665Z,18.30
2023-04-17T05:00:24.179Z,20.00
2023-04-17T05:02:57.379Z,16.88
2023-04-17T05:05:28.603Z,19.92
2023-04-17T05:07:58.727Z,17.77
2023-04-17T05:10:33.044Z,19.52
2023-04-17T05:13:06.234Z,18.83
2023-04-17T05:15:35.732Z,18.83
2023-04-17T05:18:06.759Z,16.38
2023-04-17T05:20:37.826Z,20.08
2023-04-17T05:23:08.056Z,20.27
2023-04-17T05:25:37.619Z,19.13
2023-04-17T05:28:09.887Z,18.52
2023-04-17T05:30:39.388Z,18.77
2023-04-17T05:33:16.934Z,20.38
2023-04-17T05:35:56.294Z,19.50
2023-04-17T05:38:26.448Z,19.40
2023-04-17T05:40:56.369Z,18.75
2023-04-17T05:43:25.753Z,19.08
2023-04-17T05:45:56.921Z,19.48
2023-04-17T05:48:26.378Z,19.42
2023-04-17T05:50:55.983Z,19.98
2023-04-17T05:53:26.178Z,21.15
2023-04-17T05:56:00.219Z,20.40
2023-04-17T05:58:29.718Z,19.17
2023-04-17T06:01:00.871Z,19.10
2023-04-17T06:03:32.120Z,21.08
2023-04-17T06:06:15.368Z,20.08
2023-04-17T06:08:44.772Z,18.40
2023-04-17T06:11:15.883Z,22.63
2023-04-17T06:13:46.251Z,20.15
2023-04-17T06:16:17.123Z,18.67
2023-04-17T06:18:49.741Z,20.23
2023-04-17T06:21:19.164Z,18.38
2023-04-17T06:23:48.592Z,19.15
2023-04-17T06:26:19.819Z,19.27
2023-04-17T06:28:50.363Z,21.05
2023-04-17T06:31:20.021Z,18.67
2023-04-17T06:33:51.418Z,18.08
2023-04-17T06:36:24.258Z,18.73
2023-04-17T06:38:58.184Z,20.67
2023-04-17T06:41:27.588Z,20.83
2023-04-17T06:43:57.092Z,21.77
2023-04-17T06:46:26.589Z,20.00
2023-04-17T06:48:59.581Z,17.85
2023-04-17T06:51:31.308Z,18.48
2023-04-17T06:54:00.721Z,20.27
2023-04-17T06:56:30.134Z,21.27
2023-04-17T06:59:00.746Z,20.30
2023-04-17T07:01:32.075Z,18.42
2023-04-17T07:04:01.778Z,19.02
2023-04-17T07:06:33.947Z,19.20
2023-04-17T07:09:04.138Z,19.63
2023-04-17T07:11:33.519Z,18.52
2023-04-17T07:14:02.900Z,19.77
2023-04-17T07:16:32.421Z,19.08
2023-04-17T07:19:01.888Z,19.92
2023-04-17T07:21:31.896Z,19.35
2023-04-17T07:24:01.373Z,18.20
2023-04-17T07:26:30.759Z,20.30
2023-04-17T07:29:00.519Z,20.90
2023-04-17T07:31:30.038Z,20.45
2023-04-17T07:33:59.447Z,19.95
2023-04-17T07:36:30.251Z,20.35
2023-04-17T07:38:59.644Z,19.50
2023-04-17T07:41:29.074Z,19.05
2023-04-17T07:43:59.163Z,20.67
2023-04-17T07:46:28.784Z,18.75
2023-04-17T07:48:58.401Z,20.15
2023-04-17T07:51:27.890Z,18.77
2023-04-17T07:53:57.310Z,20.67
2023-04-17T07:56:27.924Z,20.48
2023-04-17T07:58:58.641Z,19.30
2023-04-17T08:01:28.158Z,20.58
2023-04-17T08:03:58.659Z,20.52
2023-04-17T08:06:28.338Z,21.30
2023-04-17T08:09:00.026Z,21.05
2023-04-17T08:11:29.452Z,20.02
2023-04-17T08:13:58.906Z,20.75
2023-04-17T08:16:28.343Z,19.52
2023-04-17T08:18:57.798Z,20.63
2023-04-17T08:21:27.708Z,20.90
2023-04-17T08:23:57.101Z,19.75
2023-04-17T08:26:26.675Z,21.10
2023-04-17T08:28:56.290Z,23.52
2023-04-17T08:31:26.830Z,19.42
2023-04-17T08:34:10.525Z,20.10
2023-04-17T08:36:46.425Z,18.48
2023-04-17T08:39:17.025Z,20.90
2023-04-17T08:41:52.099Z,19.90
2023-04-17T08:44:22.863Z,20.23
2023-04-17T08:46:52.706Z,18.27
2023-04-17T08:49:22.210Z,18.48
2023-04-17T08:51:51.638Z,18.70
2023-04-17T08:54:22.197Z,21.15
2023-04-17T08:56:51.809Z,21.45
2023-04-17T08:59:22.420Z,20.60
2023-04-17T09:02:10.739Z,19.73
2023-04-17T09:04:44.557Z,17.00
2023-04-17T09:07:15.712Z,19.25
2023-04-17T09:09:52.000Z,17.98
2023-04-17T09:12:26.938Z,19.25
2023-04-17T09:14:56.367Z,19.00
2023-04-17T09:17:25.754Z,18.73
2023-04-17T09:20:04.423Z,17.38
2023-04-17T09:22:34.052Z,19.30
2023-04-17T09:25:03.492Z,20.05
2023-04-17T09:27:33.049Z,17.98
2023-04-17T09:30:07.214Z,16.83
2023-04-17T09:32:37.306Z,16.65
2023-04-17T09:35:07.627Z,17.33
2023-04-17T09:37:53.695Z,18.80
2023-04-17T09:40:23.964Z,18.98
2023-04-17T09:42:57.344Z,17.60
2023-04-17T09:45:29.831Z,17.27
2023-04-17T09:47:59.290Z,18.30
2023-04-17T09:50:28.790Z,19.98
2023-04-17T09:52:59.018Z,18.75
2023-04-17T09:55:30.263Z,19.85
2023-04-17T09:58:01.071Z,18.58
2023-04-17T10:00:30.839Z,18.65
2023-04-17T10:03:01.260Z,15.70
2023-04-17T10:05:32.616Z,17.00
2023-04-17T10:08:02.057Z,18.60
2023-04-17T10:10:35.036Z,18.42
2023-04-17T10:13:05.631Z,17.17
2023-04-17T10:15:35.779Z,17.05
2023-04-17T10:18:25.546Z,16.17
2023-04-17T10:20:56.020Z,16.98
2023-04-17T10:23:51.590Z,16.10
2023-04-17T10:26:29.942Z,16.80
2023-04-17T10:29:00.043Z,14.98
2023-04-17T10:31:52.911Z,15.88
2023-04-17T10:34:38.148Z,14.30
2023-04-17T10:37:07.972Z,15.43
2023-04-17T10:39:53.033Z,15.35
2023-04-17T10:42:23.389Z,15.88
2023-04-17T10:44:53.512Z,15.13
2023-04-17T10:47:23.902Z,13.52
2023-04-17T10:50:00.702Z,13.68
2023-04-17T10:52:38.312Z,13.20
2023-04-17T10:55:08.857Z,13.77
2023-04-17T10:57:57.119Z,14.70
2023-04-17T11:00:46.817Z,12.95
2023-04-17T11:03:18.166Z,13.20
2023-04-17T11:05:48.298Z,12.88
2023-04-17T11:08:18.109Z,11.85
2023-04-17T11:10:47.505Z,13.27
2023-04-17T11:13:17.712Z,12.68
2023-04-17T11:15:47.233Z,12.60
2023-04-17T11:18:17.428Z,11.50
2023-04-17T11:20:47.060Z,11.63
2023-04-17T11:23:16.583Z,11.50
2023-04-17T11:25:46.378Z,11.05
2023-04-17T11:28:16.100Z,11.55
2023-04-17T11:30:46.207Z,11.68
2023-04-17T11:33:16.245Z,12.98
2023-04-17T11:35:45.828Z,10.82
2023-04-17T11:38:22.607Z,11.65
2023-04-17T11:40:55.237Z,11.45
2023-04-17T11:43:25.586Z,11.13
2023-04-17T11:45:56.426Z,10.88
2023-04-17T11:48:27.391Z,10.52
2023-04-17T11:50:58.115Z,10.63
2023-04-17T11:53:27.775Z,11.55
2023-04-17T11:56:16.013Z,10.13
2023-04-17T11:58:55.852Z,10.27
2023-04-17T12:01:26.800Z,10.23
2023-04-17T12:03:57.133Z,9.05
2023-04-17T12:06:28.001Z,9.10
2023-04-17T12:08:58.078Z,9.32
2023-04-17T12:11:27.642Z,10.20
2023-04-17T12:13:57.641Z,10.10
2023-04-17T12:16:29.303Z,8.98
2023-04-17T12:18:59.033Z,9.77
2023-04-17T12:21:28.492Z,10.13
2023-04-17T12:23:57.866Z,8.20
2023-04-17T12:26:28.677Z,9.25
2023-04-17T12:28:59.401Z,9.00
2023-04-17T12:31:28.814Z,7.78
2023-04-17T12:33:58.354Z,9.07
2023-04-17T12:36:27.790Z,10.20
2023-04-17T12:38:57.186Z,9.32
2023-04-17T12:41:27.066Z,8.60
2023-04-17T12:44:00.384Z,7.78
2023-04-17T12:46:29.860Z,8.52
2023-04-17T12:48:59.523Z,8.95
2023-04-17T12:51:29.759Z,8.52
2023-04-17T12:53:59.159Z,7.22
2023-04-17T12:56:28.665Z,8.05
2023-04-17T12:58:59.907Z,7.53
2023-04-17T13:01:46.030Z,7.28
2023-04-17T13:04:16.105Z,7.82
2023-04-17T13:06:45.887Z,8.05
2023-04-17T13:09:17.171Z,7.15
2023-04-17T13:11:46.727Z,8.90
2023-04-17T13:14:16.134Z,7.90
2023-04-17T13:16:45.792Z,7.50
2023-04-17T13:19:15.468Z,8.38
2023-04-17T13:21:45.115Z,7.22
2023-04-17T13:24:14.948Z,7.80
2023-04-17T13:26:44.510Z,7.45
2023-04-17T13:29:15.126Z,7.63
2023-04-17T13:31:46.019Z,9.63
2023-04-17T13:34:15.430Z,7.38
2023-04-17T13:36:45.199Z,8.25
2023-04-17T13:39:15.267Z,8.38
2023-04-17T13:41:44.905Z,8.00
2023-04-17T13:44:14.803Z,8.15
2023-04-17T13:46:44.472Z,8.48
2023-04-17T13:49:14.266Z,8.93
2023-04-17T13:51:43.827Z,9.65
2023-04-17T13:54:13.271Z,8.88
2023-04-17T13:56:42.717Z,8.55
2023-04-17T13:59:12.438Z,10.32
2023-04-17T14:01:42.089Z,9.25
2023-04-17T14:04:11.732Z,9.80
2023-04-17T14:06:43.812Z,8.90
2023-04-17T14:09:13.946Z,9.02
2023-04-17T14:11:43.617Z,9.82
2023-04-17T14:14:13.226Z,10.05
2023-04-17T14:16:43.522Z,9.95
2023-04-17T14:19:14.800Z,10.00
2023-04-17T14:21:44.769Z,9.50
2023-04-17T14:24:14.146Z,8.90
2023-04-17T14:26:43.577Z,10.15
2023-04-17T14:29:14.244Z,10.82
2023-04-17T14:31:44.179Z,9.57
2023-04-17T14:34:13.694Z,9.25
2023-04-17T14:36:43.660Z,8.70
2023-04-17T14:39:13.672Z,8.50
2023-04-17T14:41:43.250Z,10.73
2023-04-17T14:44:12.997Z,9.40
2023-04-17T14:46:42.840Z,9.35
2023-04-17T14:49:12.513Z,10.32
2023-04-17T14:51:42.106Z,9.13
2023-04-17T14:54:11.602Z,9.88
2023-04-17T14:56:41.045Z,9.32
2023-04-17T14:59:10.754Z,9.15
2023-04-17T15:01:40.365Z,9.40
2023-04-17T15:04:09.841Z,8.55
2023-04-17T15:06:39.435Z,8.20
2023-04-17T15:09:10.064Z,8.85
2023-04-17T15:11:42.425Z,8.95
2023-04-17T15:14:11.885Z,10.40
2023-04-17T15:16:41.388Z,9.00
2023-04-17T15:19:10.952Z,8.45
2023-04-17T15:21:40.502Z,10.20
2023-04-17T15:24:10.050Z,10.80
2023-04-17T15:26:39.471Z,8.88
2023-04-17T15:29:08.907Z,9.82
2023-04-17T15:31:40.522Z,9.10
2023-04-17T15:34:09.973Z,9.15
2023-04-17T15:36:39.382Z,9.10
2023-04-17T15:39:08.815Z,9.52
2023-04-17T15:41:38.358Z,8.15
2023-04-17T15:44:08.050Z,8.20
2023-04-17T15:46:37.552Z,7.70
2023-04-17T15:49:09.175Z,9.00
2023-04-17T15:51:41.382Z,8.43
2023-04-17T15:54:13.479Z,8.88
2023-04-17T15:56:43.028Z,7.55
2023-04-17T15:59:12.893Z,8.40
2023-04-17T16:01:42.532Z,8.00
2023-04-17T16:04:12.131Z,6.88
2023-04-17T16:06:47.479Z,7.95
2023-04-17T16:09:20.103Z,7.50
2023-04-17T16:11:50.230Z,6.57
2023-04-17T16:14:19.631Z,7.75
2023-04-17T16:16:49.027Z,7.68
2023-04-17T16:19:18.560Z,8.32
2023-04-17T16:21:47.966Z,6.82
2023-04-17T16:24:17.321Z,7.22
2023-04-17T16:26:46.681Z,6.93
2023-04-17T16:29:16.294Z,5.90
2023-04-17T16:31:45.844Z,5.90
2023-04-17T16:34:15.380Z,5.90
2023-04-17T16:36:45.918Z,7.03
2023-04-17T16:39:15.835Z,5.45
2023-04-17T16:41:45.398Z,5.25
2023-04-17T16:44:17.849Z,5.93
2023-04-17T16:47:09.471Z,5.30
2023-04-17T16:49:36.686Z,6.93
2023-04-17T16:52:06.109Z,6.90
2023-04-17T16:54:35.579Z,6.72
2023-04-17T16:57:05.394Z,6.40
2023-04-17T16:59:35.041Z,6.28
2023-04-17T17:02:04.645Z,7.10
2023-04-17T17:04:34.180Z,6.95
2023-04-17T17:07:03.650Z,7.50
2023-04-17T17:09:33.020Z,7.00
2023-04-17T17:12:02.542Z,6.95
2023-04-17T17:14:32.014Z,7.38
2023-04-17T17:17:01.456Z,6.32
2023-04-17T17:19:30.942Z,7.10
2023-04-17T17:22:00.574Z,7.03
2023-04-17T17:24:31.142Z,7.13
2023-04-17T17:27:00.834Z,7.32
2023-04-17T17:29:30.188Z,6.55
2023-04-17T17:31:59.724Z,7.25
2023-04-17T17:34:30.572Z,6.43
2023-04-17T17:37:00.049Z,6.35
2023-04-17T17:39:29.443Z,6.70
2023-04-17T17:41:58.888Z,7.10
2023-04-17T17:44:28.326Z,6.28
2023-04-17T17:46:57.702Z,6.55
2023-04-17T17:49:27.100Z,6.05
2023-04-17T17:51:56.591Z,6.88
2023-04-17T17:54:25.984Z,6.85
2023-04-17T17:56:55.457Z,6.80
2023-04-17T17:59:25.093Z,7.22
2023-04-17T18:01:54.632Z,8.10
2023-04-17T18:04:24.323Z,6.97
2023-04-17T18:06:53.831Z,6.72
2023-04-17T18:09:23.260Z,7.18
2023-04-17T18:11:52.896Z,6.88
2023-04-17T18:14:22.395Z,7.55
2023-04-17T18:16:51.807Z,6.78
2023-04-17T18:19:21.588Z,7.45
2023-04-17T18:21:51.024Z,6.60
2023-04-17T18:24:20.556Z,7.63
2023-04-17T18:26:50.426Z,8.07
2023-04-17T18:29:19.883Z,8.07
2023-04-17T18:31:51.419Z,7.90
2023-04-17T18:34:23.478Z,7.28
2023-04-17T18:36:53.420Z,7.60
2023-04-17T18:39:22.859Z,7.57
2023-04-17T18:41:52.204Z,7.22
2023-04-17T18:44:22.456Z,7.20
2023-04-17T18:46:51.902Z,7.70
2023-04-17T18:49:21.460Z,8.05
2023-04-17T18:51:50.981Z,7.53
2023-04-17T18:54:20.756Z,11.10
2023-04-17T18:56:50.174Z,7.38
2023-04-17T18:59:21.093Z,9.00
2023-04-17T19:01:50.854Z,7.05
2023-04-17T19:04:21.038Z,10.75
2023-04-17T19:06:50.453Z,8.57
2023-04-17T19:09:19.903Z,12.50
2023-04-17T19:11:49.528Z,7.63
2023-04-17T19:14:18.934Z,9.43
2023-04-17T19:16:48.444Z,10.10
2023-04-17T19:19:17.881Z,9.43
2023-04-17T19:21:47.278Z,8.07
2023-04-17T19:24:17.601Z,8.13
2023-04-17T19:26:47.077Z,7.47
2023-04-17T19:29:19.610Z,7.85
2023-04-17T19:31:49.061Z,6.93
2023-04-17T19:34:18.595Z,9.00
2023-04-17T19:36:47.999Z,7.60
2023-04-17T19:39:17.650Z,7.90
2023-04-17T19:41:50.964Z,7.75
2023-04-17T19:44:21.072Z,8.13
2023-04-17T19:46:50.635Z,8.32
2023-04-17T19:49:20.178Z,7.45
2023-04-17T19:51:49.682Z,7.57
2023-04-17T19:54:19.101Z,7.88
2023-04-17T19:56:48.582Z,7.25
2023-04-17T19:59:18.001Z,7.47
2023-04-17T20:01:48.797Z,7.35
2023-04-17T20:04:19.219Z,7.28
2023-04-17T20:06:48.801Z,7.03
2023-04-17T20:09:18.373Z,7.07
2023-04-17T20:11:47.948Z,7.45
2023-04-17T20:14:19.694Z,7.25
2023-04-17T20:16:50.265Z,6.95
2023-04-17T20:19:20.690Z,6.63
2023-04-17T20:21:50.305Z,6.70
2023-04-17T20:24:20.191Z,7.38
2023-04-17T20:26:49.656Z,7.03
2023-04-17T20:29:19.121Z,6.88
2023-04-17T20:31:48.824Z,6.32
2023-04-17T20:34:18.807Z,6.75
2023-04-17T20:36:48.447Z,6.07
2023-04-17T20:39:17.860Z,6.13
2023-04-17T20:41:47.589Z,5.72
2023-04-17T20:44:18.837Z,8.23
2023-04-17T20:46:48.617Z,6.45
2023-04-17T20:49:18.266Z,6.47
2023-04-17T20:51:47.776Z,6.68
2023-04-17T20:54:17.193Z,6.45
2023-04-17T20:56:46.784Z,6.07
2023-04-17T20:59:17.388Z,6.03
2023-04-17T21:01:46.899Z,6.32
2023-04-17T21:04:19.648Z,5.38
2023-04-17T21:06:49.559Z,6.03
2023-04-17T21:09:19.050Z,6.32
2023-04-17T21:11:49.816Z,5.70
2023-04-17T21:14:19.322Z,6.10
2023-04-17T21:16:48.788Z,6.78
2023-04-17T21:19:18.249Z,6.07
2023-04-17T21:21:48.661Z,6.57
2023-04-17T21:24:18.084Z,6.50
2023-04-17T21:26:47.548Z,6.60
2023-04-17T21:29:17.455Z,6.60
2023-04-17T21:31:46.949Z,6.15
2023-04-17T21:34:17.353Z,7.30
2023-04-17T21:36:50.066Z,6.28
2023-04-17T21:39:19.468Z,5.90
2023-04-17T21:41:49.061Z,7.25
2023-04-17T21:44:18.576Z,6.22
2023-04-17T21:46:48.467Z,7.47
2023-04-17T21:49:17.936Z,6.53
2023-04-17T21:51:47.382Z,6.25
2023-04-17T21:54:16.984Z,6.53
2023-04-17T21:56:46.430Z,7.25
2023-04-17T21:59:15.825Z,6.55
2023-04-17T22:01:45.180Z,6.20
2023-04-17T22:04:14.794Z,7.57
2023-04-17T22:06:44.413Z,7.00
2023-04-17T22:09:13.881Z,6.32
2023-04-17T22:11:43.913Z,6.65
2023-04-17T22:14:13.471Z,8.15
2023-04-17T22:16:43.142Z,6.43
2023-04-17T22:19:12.620Z,7.53
2023-04-17T22:21:42.012Z,7.32
2023-04-17T22:24:12.329Z,8.23
2023-04-17T22:26:41.951Z,6.88
2023-04-17T22:29:11.330Z,6.55
2023-04-17T22:31:40.760Z,7.68
2023-04-17T22:34:10.101Z,8.30
2023-04-17T22:36:39.563Z,8.05
2023-04-17T22:39:09.231Z,7.07
2023-04-17T22:41:38.625Z,7.70
2023-04-17T22:44:07.994Z,7.93
2023-04-17T22:46:37.400Z,7.07
2023-04-17T22:49:07.681Z,8.73
2023-04-17T22:51:37.493Z,7.15
2023-04-17T22:54:18.983Z,7.35
2023-04-17T22:56:51.527Z,7.43
2023-04-17T22:59:21.030Z,7.35
2023-04-17T23:01:50.456Z,7.22
2023-04-17T23:04:19.900Z,7.00
2023-04-17T23:06:49.520Z,7.13
2023-04-17T23:09:19.057Z,6.72
2023-04-17T23:11:48.426Z,6.75
2023-04-17T23:14:17.846Z,7.00
2023-04-17T23:16:47.199Z,6.45
2023-04-17T23:19:16.667Z,7.05
2023-04-17T23:21:46.012Z,7.00
2023-04-17T23:24:15.579Z,6.53
2023-04-17T23:26:45.055Z,7.32
2023-04-17T23:29:14.439Z,5.68
2023-04-17T23:31:45.642Z,7.15
2023-04-17T23:34:15.267Z,5.78
2023-04-17T23:36:44.903Z,5.97
2023-04-17T23:39:14.276Z,6.47
2023-04-17T23:41:44.431Z,6.50
2023-04-17T23:44:14.108Z,6.82
2023-04-17T23:46:43.770Z,6.22
2023-04-17T23:49:13.352Z,5.75
2023-04-17T23:51:42.757Z,7.18
2023-04-17T23:54:12.427Z,6.57
2023-04-17T23:56:43.759Z,6.68
2023-04-17T23:59:13.213Z,6.68
